TimePST,TemperatureF,Dew PointF,Humidity,Sea Level PressureIn,VisibilityMPH,Wind Direction,Wind SpeedMPH,Gust SpeedMPH,PrecipitationIn,Events,Conditions,WindDirDegrees,DateUTC
12:52 AM,50.0,37.9,63,30.06,10.0,East,3.5,-,N/A,,Partly Cloudy,80,2013-02-26 08:52:00
1:52 AM,48.0,35.1,61,30.05,10.0,Calm,Calm,-,N/A,,Clear,0,2013-02-26 09:52:00
2:52 AM,48.0,32.0,54,30.03,10.0,East,3.5,-,N/A,,Clear,100,2013-02-26 10:52:00
3:52 AM,46.0,30.0,54,30.02,10.0,Calm,Calm,-,N/A,,Clear,0,2013-02-26 11:52:00
4:52 AM,46.0,28.0,50,30.01,10.0,Calm,Calm,-,N/A,,Clear,0,2013-02-26 12:52:00
5:52 AM,46.0,28.0,50,30.01,10.0,Calm,Calm,-,N/A,,Clear,0,2013-02-26 13:52:00
6:52 AM,45.0,30.0,56,30.02,10.0,East,3.5,-,N/A,,Clear,90,2013-02-26 14:52:00
7:52 AM,51.1,30.0,44,30.03,10.0,Calm,Calm,-,N/A,,Partly Cloudy,0,2013-02-26 15:52:00
8:52 AM,57.0,32.0,39,30.04,10.0,Calm,Calm,-,N/A,,Partly Cloudy,0,2013-02-26 16:52:00
9:52 AM,62.1,32.0,32,30.04,10.0,NNW,5.8,-,N/A,,Partly Cloudy,340,2013-02-26 17:52:00
10:52 AM,63.0,37.0,38,30.03,10.0,NNW,8.1,-,N/A,,Partly Cloudy,330,2013-02-26 18:52:00
11:52 AM,64.0,39.9,41,30.01,10.0,WNW,12.7,-,N/A,,Partly Cloudy,300,2013-02-26 19:52:00
12:52 PM,64.0,39.0,40,29.99,10.0,NW,12.7,-,N/A,,Partly Cloudy,310,2013-02-26 20:52:00
1:52 PM,64.0,41.0,43,29.98,10.0,NW,15.0,-,N/A,,Partly Cloudy,320,2013-02-26 21:52:00
2:52 PM,63.0,39.0,41,29.98,10.0,NW,18.4,-,N/A,,Partly Cloudy,320,2013-02-26 22:52:00
3:52 PM,63.0,43.0,48,29.98,10.0,NW,13.8,-,N/A,,Partly Cloudy,320,2013-02-26 23:52:00
4:52 PM,62.1,45.0,53,29.98,10.0,NNW,16.1,-,N/A,,Partly Cloudy,330,2013-02-27 00:52:00
5:52 PM,59.0,46.0,62,29.99,10.0,NNW,9.2,-,N/A,,Partly Cloudy,330,2013-02-27 01:52:00
6:27 PM,-9999,-9999,N/A,-9999,-9999.0,North,-9999.0,-,N/A,,Unknown,0,2013-02-27 02:27:00
6:52 PM,60.1,43.0,53,30.02,10.0,North,5.8,-,N/A,,Partly Cloudy,350,2013-02-27 02:52:00
7:52 PM,57.9,44.1,60,30.04,10.0,NNW,4.6,-,N/A,,Partly Cloudy,340,2013-02-27 03:52:00
8:52 PM,55.9,46.0,69,30.07,10.0,NNW,3.5,-,N/A,,Partly Cloudy,340,2013-02-27 04:52:00
9:52 PM,55.9,48.0,75,30.08,9.0,NNW,6.9,-,N/A,,Partly Cloudy,330,2013-02-27 05:52:00
10:52 PM,55.9,48.9,77,30.10,9.0,North,3.5,-,N/A,,Partly Cloudy,10,2013-02-27 06:52:00
11:52 PM,52.0,46.0,80,30.11,9.0,Calm,Calm,-,N/A,,Clear,0,2013-02-27 07:52:00